Time,TemperatureF,DewpointF,PressureIn,WindDirection,WindDirectionDegrees,WindSpeedMPH,WindSpeedGustMPH,Humidity,HourlyPrecipIn,Conditions,Clouds,dailyrainin,SolarRadiationWatts/m^2,SoftwareType,DateUTC
2013-04-23 00:11:00,45.0,6.0,-100.00,NNE,17,7.0,13.0,20,0.00,,,0.00,0.000000,,2013-04-23 07:11:00,
2013-04-23 00:21:00,45.0,6.0,-100.00,NNE,17,7.0,13.0,20,0.00,,,0.00,0.000000,,2013-04-23 07:21:00,
2013-04-23 00:32:00,45.0,6.0,-100.00,NNE,17,7.0,13.0,20,0.00,,,0.00,0.000000,,2013-04-23 07:32:00,
2013-04-23 00:42:00,45.0,6.0,-100.00,NNE,17,7.0,13.0,20,0.00,,,0.00,0.000000,,2013-04-23 07:42:00,
2013-04-23 01:11:00,42.0,4.0,-100.00,NNE,17,7.0,12.0,20,0.00,,,0.00,0.000000,,2013-04-23 08:11:00,
2013-04-23 01:21:00,42.0,4.0,-100.00,NNE,17,7.0,12.0,20,0.00,,,0.00,0.000000,,2013-04-23 08:21:00,
2013-04-23 01:31:00,42.0,4.0,-100.00,NNE,17,7.0,12.0,20,0.00,,,0.00,0.000000,,2013-04-23 08:31:00,
2013-04-23 01:42:00,42.0,4.0,-100.00,NNE,17,7.0,12.0,20,0.00,,,0.00,0.000000,,2013-04-23 08:42:00,
2013-04-23 02:11:00,41.0,4.0,-100.00,NNE,21,8.0,15.0,21,0.00,,,0.00,0.000000,,2013-04-23 09:11:00,
2013-04-23 02:21:00,41.0,4.0,-100.00,NNE,21,8.0,15.0,21,0.00,,,0.00,0.000000,,2013-04-23 09:21:00,
2013-04-23 02:32:00,41.0,4.0,-100.00,NNE,21,8.0,15.0,21,0.00,,,0.00,0.000000,,2013-04-23 09:32:00,
2013-04-23 02:42:00,41.0,4.0,-100.00,NNE,21,8.0,15.0,21,0.00,,,0.00,0.000000,,2013-04-23 09:42:00,
2013-04-23 03:13:00,39.0,4.0,-100.00,East,82,3.0,13.0,23,0.00,,,0.00,0.000000,,2013-04-23 10:13:00,
2013-04-23 03:22:00,39.0,4.0,-100.00,East,82,3.0,13.0,23,0.00,,,0.00,0.000000,,2013-04-23 10:22:00,
2013-04-23 03:32:00,39.0,4.0,-100.00,East,82,3.0,13.0,23,0.00,,,0.00,0.000000,,2013-04-23 10:32:00,
2013-04-23 03:42:00,39.0,4.0,-100.00,East,82,3.0,13.0,23,0.00,,,0.00,0.000000,,2013-04-23 10:42:00,
2013-04-23 04:12:00,32.0,3.0,-100.00,ENE,72,0.0,7.0,28,0.00,,,0.00,0.000000,,2013-04-23 11:12:00,
2013-04-23 04:21:00,32.0,3.0,-100.00,ENE,72,0.0,7.0,28,0.00,,,0.00,0.000000,,2013-04-23 11:21:00,
2013-04-23 04:32:00,32.0,3.0,-100.00,ENE,72,0.0,7.0,28,0.00,,,0.00,0.000000,,2013-04-23 11:32:00,
2013-04-23 04:42:00,32.0,3.0,-100.00,ENE,72,0.0,7.0,28,0.00,,,0.00,0.000000,,2013-04-23 11:42:00,
2013-04-23 05:12:00,30.0,3.0,-100.00,NNE,24,0.0,3.0,31,0.00,,,0.00,0.000000,,2013-04-23 12:12:00,
2013-04-23 05:22:00,30.0,3.0,-100.00,NNE,24,0.0,3.0,31,0.00,,,0.00,0.000000,,2013-04-23 12:22:00,
2013-04-23 05:32:00,30.0,3.0,-100.00,NNE,24,0.0,3.0,31,0.00,,,0.00,0.000000,,2013-04-23 12:32:00,
2013-04-23 05:41:00,30.0,3.0,-100.00,NNE,24,0.0,3.0,31,0.00,,,0.00,0.000000,,2013-04-23 12:41:00,
2013-04-23 06:11:00,33.0,3.0,-100.00,ENE,67,1.0,5.0,27,0.00,,,0.00,0.000000,,2013-04-23 13:11:00,
2013-04-23 06:21:00,33.0,3.0,-100.00,ENE,67,1.0,5.0,27,0.00,,,0.00,0.000000,,2013-04-23 13:21:00,
2013-04-23 06:32:00,33.0,3.0,-100.00,ENE,67,1.0,5.0,27,0.00,,,0.00,0.000000,,2013-04-23 13:32:00,
2013-04-23 06:41:00,33.0,3.0,-100.00,ENE,67,1.0,5.0,27,0.00,,,0.00,0.000000,,2013-04-23 13:41:00,
2013-04-23 07:11:00,32.0,5.0,-100.00,NE,49,0.0,3.0,31,0.00,,,0.00,25.000000,,2013-04-23 14:11:00,
2013-04-23 07:22:00,32.0,5.0,-100.00,NE,49,0.0,3.0,31,0.00,,,0.00,25.000000,,2013-04-23 14:22:00,
2013-04-23 07:31:00,32.0,5.0,-100.00,NE,49,0.0,3.0,31,0.00,,,0.00,25.000000,,2013-04-23 14:31:00,
2013-04-23 07:42:00,32.0,5.0,-100.00,NE,49,0.0,3.0,31,0.00,,,0.00,25.000000,,2013-04-23 14:42:00,
2013-04-23 08:12:00,43.0,7.0,-100.00,WNW,303,0.0,3.0,22,0.00,,,0.00,246.000000,,2013-04-23 15:12:00,
2013-04-23 08:21:00,43.0,7.0,-100.00,WNW,303,0.0,3.0,22,0.00,,,0.00,246.000000,,2013-04-23 15:21:00,
2013-04-23 08:32:00,43.0,7.0,-100.00,WNW,303,0.0,3.0,22,0.00,,,0.00,246.000000,,2013-04-23 15:32:00,
2013-04-23 08:42:00,43.0,7.0,-100.00,WNW,303,0.0,3.0,22,0.00,,,0.00,246.000000,,2013-04-23 15:42:00,
2013-04-23 09:12:00,46.0,7.0,-100.00,NNE,20,2.0,5.0,20,0.00,,,0.00,505.000000,,2013-04-23 16:12:00,
2013-04-23 09:23:00,46.0,7.0,-100.00,NNE,20,2.0,5.0,20,0.00,,,0.00,505.000000,,2013-04-23 16:23:00,
2013-04-23 09:33:00,46.0,7.0,-100.00,NNE,20,2.0,5.0,20,0.00,,,0.00,505.000000,,2013-04-23 16:33:00,
2013-04-23 09:42:00,46.0,7.0,-100.00,NNE,20,2.0,5.0,20,0.00,,,0.00,505.000000,,2013-04-23 16:42:00,
2013-04-23 10:11:00,49.0,7.0,-100.00,NE,50,4.0,9.0,18,0.00,,,0.00,749.000000,,2013-04-23 17:11:00,
2013-04-23 10:22:00,49.0,7.0,-100.00,NE,50,4.0,9.0,18,0.00,,,0.00,749.000000,,2013-04-23 17:22:00,
2013-04-23 10:32:00,49.0,7.0,-100.00,NE,50,4.0,9.0,18,0.00,,,0.00,749.000000,,2013-04-23 17:32:00,
2013-04-23 10:42:00,49.0,7.0,-100.00,NE,50,4.0,9.0,18,0.00,,,0.00,749.000000,,2013-04-23 17:42:00,
2013-04-23 11:12:00,51.0,5.0,-100.00,NNE,32,6.0,10.0,15,0.00,,,0.00,995.000000,,2013-04-23 18:12:00,
2013-04-23 11:22:00,51.0,5.0,-100.00,NNE,32,6.0,10.0,15,0.00,,,0.00,995.000000,,2013-04-23 18:22:00,
2013-04-23 11:32:00,51.0,5.0,-100.00,NNE,32,6.0,10.0,15,0.00,,,0.00,995.000000,,2013-04-23 18:32:00,
2013-04-23 11:42:00,51.0,5.0,-100.00,NNE,32,6.0,10.0,15,0.00,,,0.00,995.000000,,2013-04-23 18:42:00,
2013-04-23 12:11:00,55.0,7.0,-100.00,North,5,1.0,10.0,14,0.00,,,0.00,1144.000000,,2013-04-23 19:11:00,
2013-04-23 12:21:00,55.0,7.0,-100.00,North,5,1.0,10.0,14,0.00,,,0.00,1144.000000,,2013-04-23 19:21:00,
2013-04-23 12:32:00,55.0,7.0,-100.00,North,5,1.0,10.0,14,0.00,,,0.00,1144.000000,,2013-04-23 19:32:00,
2013-04-23 12:42:00,55.0,7.0,-100.00,North,5,1.0,10.0,14,0.00,,,0.00,1144.000000,,2013-04-23 19:42:00,
2013-04-23 13:11:00,58.0,6.0,-100.00,ESE,107,5.0,11.0,12,0.00,,,0.00,1226.000000,,2013-04-23 20:11:00,
2013-04-23 13:21:00,58.0,6.0,-100.00,ESE,107,5.0,11.0,12,0.00,,,0.00,1226.000000,,2013-04-23 20:21:00,
2013-04-23 13:31:00,58.0,6.0,-100.00,ESE,107,5.0,11.0,12,0.00,,,0.00,1226.000000,,2013-04-23 20:31:00,
2013-04-23 13:41:00,58.0,6.0,-100.00,ESE,107,5.0,11.0,12,0.00,,,0.00,1226.000000,,2013-04-23 20:41:00,
2013-04-23 14:11:00,58.0,6.0,-100.00,ENE,58,7.0,15.0,12,0.00,,,0.00,1238.000000,,2013-04-23 21:11:00,
2013-04-23 14:21:00,58.0,6.0,-100.00,ENE,58,7.0,15.0,12,0.00,,,0.00,1238.000000,,2013-04-23 21:21:00,
2013-04-23 14:32:00,58.0,6.0,-100.00,ENE,58,7.0,15.0,12,0.00,,,0.00,1238.000000,,2013-04-23 21:32:00,
2013-04-23 14:43:00,58.0,6.0,-100.00,ENE,58,7.0,15.0,12,0.00,,,0.00,1238.000000,,2013-04-23 21:43:00,
2013-04-23 15:12:00,60.0,1.0,-100.00,NE,54,6.0,16.0,9,0.00,,,0.00,1175.000000,,2013-04-23 22:12:00,
2013-04-23 15:22:00,60.0,1.0,-100.00,NE,54,6.0,16.0,9,0.00,,,0.00,1175.000000,,2013-04-23 22:22:00,
2013-04-23 15:33:00,60.0,1.0,-100.00,NE,54,6.0,16.0,9,0.00,,,0.00,1175.000000,,2013-04-23 22:33:00,
2013-04-23 15:42:00,60.0,1.0,-100.00,NE,54,6.0,16.0,9,0.00,,,0.00,1175.000000,,2013-04-23 22:42:00,
2013-04-23 16:12:00,63.0,3.0,-100.00,North,2,4.0,15.0,9,0.00,,,0.00,1041.000000,,2013-04-23 23:12:00,
2013-04-23 16:22:00,63.0,3.0,-100.00,North,2,4.0,15.0,9,0.00,,,0.00,1041.000000,,2013-04-23 23:22:00,
2013-04-23 16:31:00,63.0,3.0,-100.00,North,2,4.0,15.0,9,0.00,,,0.00,1041.000000,,2013-04-23 23:31:00,
2013-04-23 16:42:00,63.0,3.0,-100.00,North,2,4.0,15.0,9,0.00,,,0.00,1041.000000,,2013-04-23 23:42:00,
2013-04-23 17:11:00,64.0,4.0,-100.00,NE,42,6.0,16.0,9,0.00,,,-99.99,837.000000,,2013-04-24 00:11:00,
2013-04-23 17:21:00,64.0,4.0,-100.00,NE,42,6.0,16.0,9,0.00,,,-99.99,837.000000,,2013-04-24 00:21:00,
2013-04-23 17:32:00,64.0,4.0,-100.00,NE,42,6.0,16.0,9,0.00,,,-99.99,837.000000,,2013-04-24 00:32:00,
2013-04-23 17:41:00,64.0,4.0,-100.00,NE,42,6.0,16.0,9,0.00,,,-99.99,837.000000,,2013-04-24 00:41:00,
2013-04-23 18:11:00,62.0,3.0,-100.00,NNE,27,7.0,14.0,9,0.00,,,0.00,584.000000,,2013-04-24 01:11:00,
2013-04-23 18:21:00,62.0,3.0,-100.00,NNE,27,7.0,14.0,9,0.00,,,0.00,584.000000,,2013-04-24 01:21:00,
2013-04-23 18:32:00,62.0,3.0,-100.00,NNE,27,7.0,14.0,9,0.00,,,0.00,584.000000,,2013-04-24 01:32:00,
2013-04-23 18:42:00,62.0,3.0,-100.00,NNE,27,7.0,14.0,9,0.00,,,0.00,584.000000,,2013-04-24 01:42:00,
2013-04-23 19:15:00,60.0,1.0,-100.00,NNE,23,5.0,13.0,9,0.00,,,0.00,315.000000,,2013-04-24 02:15:00,
2013-04-23 19:26:00,60.0,1.0,-100.00,NNE,23,5.0,13.0,9,0.00,,,0.00,315.000000,,2013-04-24 02:26:00,
2013-04-23 19:35:00,60.0,1.0,-100.00,NNE,23,5.0,13.0,9,0.00,,,0.00,315.000000,,2013-04-24 02:35:00,
2013-04-23 19:44:00,60.0,1.0,-100.00,NNE,23,5.0,13.0,9,0.00,,,0.00,315.000000,,2013-04-24 02:44:00,
2013-04-23 20:14:00,56.0,0.0,-100.00,NNE,18,2.0,10.0,10,0.00,,,0.00,72.000000,,2013-04-24 03:14:00,
2013-04-23 20:45:00,56.0,0.0,-100.00,NNE,18,2.0,10.0,10,0.00,,,0.00,72.000000,,2013-04-24 03:45:00,
2013-04-23 21:12:00,47.0,0.0,-100.00,NNE,25,0.0,5.0,14,0.00,,,0.00,0.000000,,2013-04-24 04:12:00,
2013-04-23 21:22:00,47.0,0.0,-100.00,NNE,25,0.0,5.0,14,0.00,,,0.00,0.000000,,2013-04-24 04:22:00,
2013-04-23 21:33:00,47.0,0.0,-100.00,NNE,25,0.0,5.0,14,0.00,,,0.00,0.000000,,2013-04-24 04:33:00,
2013-04-23 21:43:00,47.0,0.0,-100.00,NNE,25,0.0,5.0,14,0.00,,,0.00,0.000000,,2013-04-24 04:43:00,
2013-04-23 22:12:00,42.0,0.0,-100.00,ENE,73,0.0,0.0,17,0.00,,,0.00,0.000000,,2013-04-24 05:12:00,
2013-04-23 22:21:00,42.0,0.0,-100.00,ENE,73,0.0,0.0,17,0.00,,,0.00,0.000000,,2013-04-24 05:21:00,
2013-04-23 22:32:00,42.0,0.0,-100.00,ENE,73,0.0,0.0,17,0.00,,,0.00,0.000000,,2013-04-24 05:32:00,
2013-04-23 22:42:00,42.0,0.0,-100.00,ENE,73,0.0,0.0,17,0.00,,,0.00,0.000000,,2013-04-24 05:42:00,
2013-04-23 23:11:00,40.0,-1.0,-100.00,SW,225,0.0,4.0,17,0.00,,,0.00,0.000000,,2013-04-24 06:11:00,
2013-04-23 23:21:00,40.0,-1.0,-100.00,SW,225,0.0,4.0,17,0.00,,,0.00,0.000000,,2013-04-24 06:21:00,
2013-04-23 23:32:00,40.0,-1.0,-100.00,SW,225,0.0,4.0,17,0.00,,,0.00,0.000000,,2013-04-24 06:32:00,
2013-04-23 23:41:00,40.0,-1.0,-100.00,SW,225,0.0,4.0,17,0.00,,,0.00,0.000000,,2013-04-24 06:41:00,